Time;durP1;ratioP1;P1;durP2;ratioP2;P2;SDS_P1;SDS_P2;PMS_P1;PMS_P2;Temp;Humidity;BMP_temperature;BMP_pressure;BME280_temperature;BME280_humidity;BME280_pressure;Samples;Min_cycle;Max_cycle;Signal;HPM_P1;HPM_P2
2022/11/08 00:02:22;;;;;;;9.37;6.23;;;;;;;12.73;58.40;97465.69;5056492;28;20183;-71
2022/11/08 00:04:47;;;;;;;10.03;4.83;;;;;;;12.69;58.58;97463.53;5053348;28;20486;-71
2022/11/08 00:15:24;;;;;;;9.77;5.87;;;;;;;12.74;58.25;97454.19;5062489;28;20573;-71
2022/11/08 00:17:49;;;;;;;9.13;5.53;;;;;;;12.72;58.15;97458.81;5065415;28;20496;-71
2022/11/08 00:20:15;;;;;;;6.93;5.50;;;;;;;12.72;58.07;97450.91;5067796;28;20618;-71
2022/11/08 00:22:40;;;;;;;8.43;5.90;;;;;;;12.73;58.16;97455.16;5057040;28;20186;-71
2022/11/08 00:25:06;;;;;;;6.30;4.90;;;;;;;12.65;58.24;97446.44;5066721;28;20637;-70
2022/11/08 00:27:32;;;;;;;8.47;5.70;;;;;;;12.60;58.26;97449.56;5064184;28;20201;-72
2022/11/08 00:29:57;;;;;;;7.23;5.00;;;;;;;12.54;58.26;97452.81;5056361;28;20251;-69
2022/11/08 00:32:24;;;;;;;9.50;5.57;;;;;;;12.48;58.58;97451.63;5067401;28;20559;-71
2022/11/08 00:34:50;;;;;;;13.50;5.10;;;;;;;12.48;58.39;97448.16;5066007;28;20197;-71
2022/11/08 00:37:17;;;;;;;9.37;4.70;;;;;;;12.44;58.75;97437.16;5067623;28;20425;-71
2022/11/08 00:39:42;;;;;;;9.27;4.60;;;;;;;12.39;58.49;97440.25;5060987;28;20477;-71
2022/11/08 00:42:08;;;;;;;5.87;4.20;;;;;;;12.40;58.44;97439.28;5062651;28;20425;-71
2022/11/08 00:44:34;;;;;;;6.00;5.10;;;;;;;12.36;58.28;97443.19;5064476;28;20271;-70
2022/11/08 00:47:00;;;;;;;7.73;5.93;;;;;;;12.38;58.42;97441.25;5065535;28;20460;-71
2022/11/08 00:49:25;;;;;;;5.73;4.80;;;;;;;12.32;58.61;97439.25;5066817;28;20260;-71
2022/11/08 00:51:51;;;;;;;6.53;4.63;;;;;;;12.25;58.31;97440.84;5063605;28;20198;-71
2022/11/08 00:54:19;;;;;;;8.97;4.80;;;;;;;12.21;58.56;97439.53;5063825;28;20194;-71
2022/11/08 00:56:45;;;;;;;8.07;4.63;;;;;;;12.24;58.66;97434.78;5060589;28;20429;-71
2022/11/08 00:59:12;;;;;;;12.13;5.50;;;;;;;12.26;58.27;97439.88;5066772;28;20550;-71
2022/11/08 01:01:38;;;;;;;9.93;5.83;;;;;;;12.20;58.28;97427.38;5063500;28;20430;-70
2022/11/08 01:04:04;;;;;;;8.77;5.60;;;;;;;12.19;58.65;97433.59;5065343;28;20420;-71
2022/11/08 01:06:30;;;;;;;10.80;5.97;;;;;;;12.17;58.24;97430.31;5065333;28;20417;-70
2022/11/08 01:08:55;;;;;;;8.67;5.53;;;;;;;12.12;58.68;97426.34;5066246;28;20178;-70
2022/11/08 01:11:22;;;;;;;10.23;5.83;;;;;;;12.12;58.47;97426.34;5054187;28;20446;-71
2022/11/08 01:13:48;;;;;;;8.93;5.47;;;;;;;12.16;58.59;97426.03;5062796;28;20550;-69
2022/11/08 01:16:19;;;;;;;7.73;5.20;;;;;;;12.13;58.51;97421.94;5060373;28;20426;-70
2022/11/08 01:18:46;;;;;;;5.60;4.63;;;;;;;12.12;58.55;97413.19;5069890;28;20206;-70
2022/11/08 01:21:12;;;;;;;8.00;5.23;;;;;;;12.08;58.50;97411.88;5054714;28;20520;-70
2022/11/08 01:23:39;;;;;;;8.13;5.33;;;;;;;12.04;58.48;97407.09;5054933;28;20519;-70
2022/11/08 01:26:07;;;;;;;9.67;6.20;;;;;;;12.00;59.18;97406.56;5063808;28;20424;-70
2022/11/08 01:28:33;;;;;;;13.50;6.50;;;;;;;11.98;59.26;97398.88;5063270;28;20428;-70
2022/11/08 01:31:13;;;;;;;11.00;6.20;;;;;;;11.95;59.94;97411.47;5066552;28;20437;-70
2022/11/08 01:33:39;;;;;;;8.00;5.83;;;;;;;11.94;59.66;97409.81;5049149;28;20448;-71
2022/11/08 01:36:06;;;;;;;6.80;5.57;;;;;;;11.96;58.83;97413.09;5068198;28;20502;-70
2022/11/08 01:38:32;;;;;;;9.63;5.10;;;;;;;11.93;58.72;97408.97;5061024;28;20687;-71
2022/11/08 01:40:57;;;;;;;13.63;6.27;;;;;;;11.90;59.03;97398.81;5051997;28;20505;-71
2022/11/08 01:43:28;;;;;;;14.50;5.03;;;;;;;11.86;59.33;97401.88;5064000;28;20189;-70
2022/11/08 01:46:19;;;;;;;7.73;5.50;;;;;;;11.91;59.20;97396.97;5057896;28;20283;-70
2022/11/08 01:48:48;;;;;;;6.00;4.27;;;;;;;11.84;59.36;97389.72;5060298;28;20892;-70
2022/11/08 01:51:16;;;;;;;6.83;4.90;;;;;;;11.88;58.97;97392.03;5064065;28;20437;-70
2022/11/08 01:53:42;;;;;;;10.40;5.00;;;;;;;11.92;58.61;97380.25;5061710;28;20497;-70
2022/11/08 01:56:08;;;;;;;8.23;4.57;;;;;;;11.89;58.46;97383.19;5057263;28;20418;-69
2022/11/08 01:58:36;;;;;;;6.67;4.77;;;;;;;11.82;58.11;97373.31;5050733;28;20202;-70
2022/11/08 02:01:01;;;;;;;7.60;4.77;;;;;;;11.78;58.33;97361.47;5065976;28;20459;-70
2022/11/08 02:03:28;;;;;;;5.10;4.10;;;;;;;11.79;58.30;97362.28;5061961;28;20424;-69
2022/11/08 02:05:53;;;;;;;4.80;4.17;;;;;;;11.82;57.83;97357.56;5049136;28;20183;-71
2022/11/08 02:08:19;;;;;;;8.17;4.53;;;;;;;11.79;58.15;97357.88;5060709;28;20432;-71
2022/11/08 02:10:49;;;;;;;11.43;4.73;;;;;;;11.71;58.73;97357.00;5058553;28;20298;-70
2022/11/08 02:13:17;;;;;;;7.87;4.60;;;;;;;11.74;58.90;97349.63;5063752;28;20193;-69
2022/11/08 02:15:43;;;;;;;6.03;4.23;;;;;;;11.73;58.51;97353.22;5060512;28;20430;-70
2022/11/08 02:18:09;;;;;;;5.87;4.73;;;;;;;11.75;58.47;97339.97;5064804;28;20465;-71
2022/11/08 02:20:34;;;;;;;6.00;4.07;;;;;;;11.68;58.77;97345.81;5050534;28;20256;-71
2022/11/08 02:23:28;;;;;;;4.93;4.30;;;;;;;11.70;58.77;97340.44;5054333;28;20245;-72
2022/11/08 02:25:53;;;;;;;8.60;4.73;;;;;;;11.69;58.47;97341.41;5062432;28;20250;-71
2022/11/08 02:28:18;;;;;;;6.30;4.50;;;;;;;11.67;58.32;97328.41;5061338;28;20508;-71
2022/11/08 02:30:44;;;;;;;8.30;4.67;;;;;;;11.65;58.74;97329.56;5068113;28;20807;-70
2022/11/08 02:33:20;;;;;;;5.77;4.27;;;;;;;11.63;58.51;97326.25;5060787;28;20198;-71
2022/11/08 02:35:53;;;;;;;6.67;4.60;;;;;;;11.60;58.79;97321.31;5068214;28;20277;-70
2022/11/08 02:38:19;;;;;;;5.40;4.10;;;;;;;11.60;58.29;97318.69;5056800;28;20492;-71
2022/11/08 02:40:54;;;;;;;11.20;4.17;;;;;;;11.62;58.23;97324.63;5058862;28;20753;-70
2022/11/08 02:43:21;;;;;;;5.50;4.13;;;;;;;11.53;57.89;97316.72;5063100;28;20189;-71
2022/11/08 02:45:46;;;;;;;8.07;4.50;;;;;;;11.47;58.13;97312.06;5061664;28;20432;-72
2022/11/08 02:48:12;;;;;;;6.10;4.67;;;;;;;11.51;58.45;97317.84;5064197;28;20437;-70
2022/11/08 02:50:37;;;;;;;5.23;4.30;;;;;;;11.46;58.84;97309.59;5063679;28;20304;-71
2022/11/08 02:53:03;;;;;;;8.10;5.63;;;;;;;11.42;58.66;97309.09;5065720;28;20235;-70
2022/11/08 02:55:29;;;;;;;6.83;4.73;;;;;;;11.44;58.99;97311.56;5068132;28;20178;-71
2022/11/08 02:57:55;;;;;;;5.23;3.43;;;;;;;11.52;58.76;97309.81;5064603;28;20277;-70
2022/11/08 03:00:20;;;;;;;10.00;4.07;;;;;;;11.50;58.50;97303.88;5067816;28;20207;-70
2022/11/08 03:02:50;;;;;;;5.00;4.33;;;;;;;11.47;58.45;97304.19;5065623;28;20186;-69
2022/11/08 03:05:19;;;;;;;7.53;4.43;;;;;;;11.47;58.19;97301.56;5064960;28;20188;-70
2022/11/08 03:07:44;;;;;;;9.10;4.77;;;;;;;11.45;57.93;97308.78;5067068;28;20421;-71
2022/11/08 03:10:10;;;;;;;4.47;3.67;;;;;;;11.45;58.30;97300.91;5069790;28;20495;-71
2022/11/08 03:12:37;;;;;;;5.60;3.77;;;;;;;11.43;58.18;97300.25;5056724;28;20186;-71
2022/11/08 03:15:04;;;;;;;4.90;3.90;;;;;;;11.42;58.36;97295.97;5065670;28;20516;-70
2022/11/08 03:17:29;;;;;;;5.67;4.23;;;;;;;11.38;58.57;97297.25;5066317;28;20495;-70
2022/11/08 03:19:55;;;;;;;6.70;4.00;;;;;;;11.28;58.88;97302.59;5070103;28;20539;-69
2022/11/08 03:22:20;;;;;;;3.93;3.50;;;;;;;11.36;58.47;97301.81;5060893;28;20194;-70
2022/11/08 03:24:46;;;;;;;6.87;4.20;;;;;;;11.32;58.24;97308.38;5055787;28;20547;-68
2022/11/08 03:27:14;;;;;;;6.87;4.13;;;;;;;11.30;58.39;97305.91;5067596;28;20190;-70
2022/11/08 03:29:39;;;;;;;7.50;4.00;;;;;;;11.28;58.55;97301.78;5058065;28;20708;-69
2022/11/08 03:32:05;;;;;;;5.57;3.90;;;;;;;11.28;58.56;97307.03;5068967;28;20424;-72
2022/11/08 03:34:30;;;;;;;5.23;3.90;;;;;;;11.25;58.29;97300.31;5066511;28;20301;-71
2022/11/08 03:36:56;;;;;;;3.90;3.60;;;;;;;11.27;58.35;97305.38;5070977;28;20603;-70
2022/11/08 03:39:21;;;;;;;5.30;3.67;;;;;;;11.24;58.40;97310.94;5065651;28;20297;-70
2022/11/08 03:41:47;;;;;;;7.13;3.93;;;;;;;11.24;58.40;97311.78;5059512;28;20198;-69
2022/11/08 03:44:12;;;;;;;3.53;3.23;;;;;;;11.19;58.32;97309.63;5068147;28;20189;-71
2022/11/08 03:46:37;;;;;;;4.17;3.50;;;;;;;11.12;58.58;97313.00;5056749;28;20705;-70
2022/11/08 03:49:03;;;;;;;6.13;4.20;;;;;;;11.09;58.45;97308.06;5053615;28;20642;-71
2022/11/08 03:51:28;;;;;;;7.73;3.40;;;;;;;11.06;58.48;97304.75;5037576;28;20202;-70
2022/11/08 03:53:54;;;;;;;4.70;3.70;;;;;;;11.05;58.34;97308.34;5057122;28;20203;-70
2022/11/08 03:56:19;;;;;;;10.43;3.50;;;;;;;10.99;58.52;97303.72;5068838;28;20271;-70
2022/11/08 03:58:45;;;;;;;5.50;3.77;;;;;;;11.01;58.35;97307.03;5061223;28;20217;-71
2022/11/08 04:01:10;;;;;;;6.90;3.33;;;;;;;11.01;58.32;97306.19;5058111;28;20209;-71
2022/11/08 04:03:36;;;;;;;6.00;3.80;;;;;;;10.97;58.19;97304.84;5068230;28;20212;-70
2022/11/08 04:06:01;;;;;;;6.37;3.67;;;;;;;10.96;58.54;97300.59;5064786;28;20183;-71
2022/11/08 04:08:28;;;;;;;4.43;3.30;;;;;;;10.94;58.22;97310.41;5053401;28;20184;-70
2022/11/08 04:15:13;;;;;;;4.33;3.93;;;;;;;10.94;58.27;97302.53;5066296;28;20229;-70
2022/11/08 04:16:29;;;;;;;3.80;3.03;;;;;;;10.90;57.76;97305.47;5066157;28;20566;-70
2022/11/08 04:21:41;;;;;;;5.00;3.60;;;;;;;10.71;58.34;97295.97;5068478;28;20826;-70
2022/11/08 04:24:07;;;;;;;4.90;3.87;;;;;;;10.71;58.34;97295.97;5051061;28;20525;-71
2022/11/08 04:26:32;;;;;;;3.73;3.00;;;;;;;10.75;57.87;97291.25;5065679;28;20504;-71
2022/11/08 04:29:01;;;;;;;8.60;4.00;;;;;;;10.73;57.74;97293.19;5061541;28;20199;-70
2022/11/08 04:31:27;;;;;;;5.60;3.87;;;;;;;10.77;57.88;97297.16;5065858;28;20198;-70
2022/11/08 04:33:53;;;;;;;3.70;3.30;;;;;;;10.81;58.10;97289.81;5060540;28;20487;-70
2022/11/08 04:36:18;;;;;;;5.47;3.50;;;;;;;10.77;58.05;97288.50;5053813;28;20179;-68
2022/11/08 04:38:49;;;;;;;3.90;3.50;;;;;;;10.71;58.24;97282.06;5066573;28;20241;-70
2022/11/08 04:41:16;;;;;;;3.57;3.10;;;;;;;10.76;57.82;97282.41;5041744;28;20301;-69
2022/11/08 04:43:42;;;;;;;4.67;3.90;;;;;;;10.77;57.88;97278.81;5050404;28;20421;-70
2022/11/08 04:46:10;;;;;;;6.07;3.50;;;;;;;10.73;58.06;97278.28;5061485;28;20436;-69
2022/11/08 04:48:36;;;;;;;3.70;3.33;;;;;;;10.74;57.92;97268.63;5065826;28;20187;-69
2022/11/08 04:51:04;;;;;;;4.23;3.60;;;;;;;10.68;57.68;97262.19;5053267;28;20441;-69
2022/11/08 04:53:29;;;;;;;3.60;3.30;;;;;;;10.66;57.95;97260.69;5055401;28;20194;-71
2022/11/08 04:55:59;;;;;;;5.20;3.27;;;;;;;10.63;58.14;97261.00;5053549;28;20413;-71
2022/11/08 04:58:25;;;;;;;7.83;3.23;;;;;;;10.65;58.46;97259.06;5055698;28;20179;-70
2022/11/08 05:00:50;;;;;;;4.43;3.53;;;;;;;10.71;58.59;97261.91;5058939;28;20571;-69
2022/11/08 05:03:15;;;;;;;3.50;3.20;;;;;;;10.73;58.58;97251.25;5060509;28;20206;-70
2022/11/08 05:05:41;;;;;;;4.50;3.27;;;;;;;10.77;58.98;97247.34;5057307;28;20210;-70
2022/11/08 05:08:06;;;;;;;3.60;3.17;;;;;;;10.87;59.53;97242.84;5062118;28;20218;-70
2022/11/08 05:10:32;;;;;;;5.53;3.50;;;;;;;10.94;59.48;97239.63;5059966;28;20195;-70
2022/11/08 05:12:57;;;;;;;5.57;3.13;;;;;;;10.95;58.60;97236.81;5058114;28;20274;-70
2022/11/08 05:15:23;;;;;;;10.80;3.63;;;;;;;10.94;58.75;97237.00;5059701;28;20600;-70
2022/11/08 05:17:48;;;;;;;4.40;4.00;;;;;;;10.97;58.63;97247.16;5067902;28;20178;-69
2022/11/08 05:25:45;;;;;;;6.30;3.83;;;;;;;10.99;59.09;97234.72;5054519;28;20510;-71
2022/11/08 05:28:11;;;;;;;6.47;3.90;;;;;;;10.97;59.99;97247.16;5061050;28;20902;-71
2022/11/08 05:30:36;;;;;;;6.20;4.30;;;;;;;11.03;59.86;97238.69;5047547;28;20195;-70
2022/11/08 05:33:02;;;;;;;4.97;3.50;;;;;;;11.05;59.72;97244.59;5052816;28;20440;-70
2022/11/08 05:35:28;;;;;;;5.33;3.90;;;;;;;11.07;59.96;97240.84;5058078;28;20267;-72
2022/11/08 05:37:53;;;;;;;5.63;3.60;;;;;;;11.10;59.96;97236.25;5046152;28;20702;-71
2022/11/08 05:40:18;;;;;;;8.33;4.00;;;;;;;11.04;59.51;97237.72;5046971;28;20211;-69
2022/11/08 05:42:44;;;;;;;6.13;4.47;;;;;;;11.00;58.81;97236.34;5058467;28;20207;-69
2022/11/08 05:45:09;;;;;;;7.13;4.93;;;;;;;10.94;58.72;97231.75;5049872;28;20183;-70
2022/11/08 05:47:36;;;;;;;7.37;5.47;;;;;;;10.91;58.66;97232.84;5050288;28;20182;-70
2022/11/08 05:50:01;;;;;;;11.53;6.43;;;;;;;10.87;58.57;97224.47;5056731;28;20792;-70
2022/11/08 05:52:26;;;;;;;7.83;5.33;;;;;;;10.84;58.99;97226.59;5066039;28;20428;-71
2022/11/08 05:54:52;;;;;;;8.17;5.70;;;;;;;10.84;59.04;97227.41;5056406;28;20252;-70
2022/11/08 05:57:18;;;;;;;7.93;5.43;;;;;;;10.82;59.02;97237.25;5043652;28;20547;-70
2022/11/08 05:59:43;;;;;;;8.43;6.07;;;;;;;10.73;59.26;97236.34;5050743;28;20203;-71
2022/11/08 06:02:08;;;;;;;8.73;6.27;;;;;;;10.67;59.28;97236.13;5063459;28;20273;-70
2022/11/08 06:04:34;;;;;;;6.80;5.53;;;;;;;10.64;59.21;97233.81;5052052;28;20666;-71
2022/11/08 06:06:59;;;;;;;5.93;4.43;;;;;;;10.66;59.24;97229.25;5056580;28;20210;-70
2022/11/08 06:09:25;;;;;;;5.20;4.10;;;;;;;10.73;59.66;97225.03;5056596;28;20261;-69
2022/11/08 06:11:50;;;;;;;3.60;3.30;;;;;;;10.81;60.32;97230.34;5057749;28;20212;-71
2022/11/08 06:14:16;;;;;;;4.90;3.53;;;;;;;10.88;60.41;97234.00;5064086;28;20182;-70
2022/11/08 06:16:41;;;;;;;3.70;3.27;;;;;;;10.96;60.21;97229.78;5059528;28;20179;-72
2022/11/08 06:19:06;;;;;;;5.00;3.93;;;;;;;10.95;60.03;97231.59;5065308;28;20226;-71
2022/11/08 06:21:32;;;;;;;6.93;4.17;;;;;;;10.97;60.40;97228.78;5045904;28;20206;-72
2022/11/08 06:23:57;;;;;;;8.20;4.50;;;;;;;10.93;60.64;97220.41;5056236;28;20193;-69
2022/11/08 06:26:23;;;;;;;6.10;4.40;;;;;;;10.94;60.96;97218.63;5066570;28;20210;-70
2022/11/08 06:28:49;;;;;;;4.23;3.83;;;;;;;10.99;60.97;97218.97;5061498;28;20253;-72
2022/11/08 06:31:14;;;;;;;5.73;4.00;;;;;;;11.03;61.07;97225.56;5064949;28;20700;-71
2022/11/08 06:33:39;;;;;;;5.47;3.80;;;;;;;10.99;60.86;97224.22;5059532;28;20601;-70
2022/11/08 06:36:06;;;;;;;7.80;4.03;;;;;;;11.01;60.77;97224.91;5070578;28;20219;-70
2022/11/08 06:38:31;;;;;;;5.17;3.90;;;;;;;11.01;60.51;97230.13;5063597;28;20187;-70
2022/11/08 06:41:00;;;;;;;8.70;3.90;;;;;;;10.94;59.76;97237.00;5056745;28;20492;-70
2022/11/08 06:43:26;;;;;;;5.60;3.70;;;;;;;10.94;60.02;97237.00;5058891;28;20178;-70
2022/11/08 06:45:51;;;;;;;8.20;4.20;;;;;;;10.91;60.29;97238.09;5069134;28;20485;-71
2022/11/08 06:48:17;;;;;;;7.70;5.67;;;;;;;10.85;61.16;97234.28;5071316;28;20586;-71
2022/11/08 06:50:42;;;;;;;7.63;5.00;;;;;;;10.97;61.38;97228.78;5050299;28;20286;-71
2022/11/08 06:53:11;;;;;;;11.50;5.00;;;;;;;10.96;61.04;97219.31;5066663;28;20190;-70
2022/11/08 06:55:36;;;;;;;5.53;4.10;;;;;;;10.94;61.05;97224.69;5065288;28;20207;-71
2022/11/08 06:58:03;;;;;;;5.90;4.57;;;;;;;10.90;61.03;97220.72;5059760;28;20544;-72
2022/11/08 07:00:29;;;;;;;7.27;4.40;;;;;;;10.94;60.99;97227.31;5065067;28;20206;-71
2022/11/08 07:02:56;;;;;;;6.70;4.70;;;;;;;10.99;60.70;97229.47;5044454;28;20422;-71
2022/11/08 07:05:22;;;;;;;6.20;4.67;;;;;;;11.08;60.39;97233.81;5036289;28;20288;-70
2022/11/08 07:07:50;;;;;;;7.13;5.23;;;;;;;11.05;60.17;97244.59;5035526;28;20505;-72
2022/11/08 07:10:21;;;;;;;9.00;5.67;;;;;;;11.06;60.47;97230.50;5058955;28;20947;-70
2022/11/08 07:12:47;;;;;;;6.50;4.73;;;;;;;11.13;60.61;97236.78;5054901;28;20452;-71
2022/11/08 07:15:13;;;;;;;9.60;5.10;;;;;;;11.27;61.06;97237.19;5046014;28;20458;-69
2022/11/08 07:17:38;;;;;;;8.60;4.47;;;;;;;11.36;61.19;97242.31;5057595;28;20183;-70
2022/11/08 07:20:04;;;;;;;9.00;4.87;;;;;;;11.47;61.36;97243.03;5052544;28;20477;-70
2022/11/08 07:22:29;;;;;;;7.23;4.27;;;;;;;11.60;61.39;97237.31;5037708;28;20184;-71
2022/11/08 07:24:55;;;;;;;8.23;4.13;;;;;;;11.69;61.09;97236.41;5056524;28;20787;-71
2022/11/08 07:27:20;;;;;;;11.87;4.13;;;;;;;11.76;61.04;97244.47;5048259;28;20294;-70
2022/11/08 07:29:46;;;;;;;4.77;2.90;;;;;;;11.80;61.04;97243.97;5063262;28;20202;-72
2022/11/08 07:32:11;;;;;;;9.30;3.63;;;;;;;11.92;60.85;97241.06;5048283;28;20194;-70
2022/11/08 07:34:37;;;;;;;6.67;3.40;;;;;;;12.03;61.09;97246.03;5051211;28;20196;-71
2022/11/08 07:37:02;;;;;;;5.90;3.87;;;;;;;12.13;60.33;97249.34;5054823;28;20682;-71
2022/11/08 07:39:27;;;;;;;5.63;3.10;;;;;;;12.13;60.38;97244.09;5056154;28;20199;-71
2022/11/08 07:41:53;;;;;;;6.00;3.27;;;;;;;12.24;59.45;97244.75;5056665;28;20203;-72
2022/11/08 07:44:18;;;;;;;8.70;2.80;;;;;;;12.26;59.88;97237.53;5056485;28;20650;-71
2022/11/08 07:46:44;;;;;;;3.80;3.10;;;;;;;12.31;59.83;97230.00;5052014;28;20737;-71
2022/11/08 07:49:09;;;;;;;7.37;3.10;;;;;;;12.35;59.59;97219.97;5039082;28;20200;-70
2022/11/08 07:51:34;;;;;;;7.63;3.40;;;;;;;12.39;59.78;97205.53;5056716;28;20290;-71
2022/11/08 07:54:00;;;;;;;6.77;3.43;;;;;;;12.67;59.78;97186.78;5042078;28;20266;-70
2022/11/08 07:56:25;;;;;;;6.43;3.20;;;;;;;13.03;59.35;97189.84;5054874;28;20214;-71
2022/11/08 07:58:52;;;;;;;6.63;4.20;;;;;;;13.28;58.35;97175.81;5060306;28;20213;-71
2022/11/08 08:01:17;;;;;;;7.17;3.97;;;;;;;13.57;57.59;97183.13;5068028;28;20206;-71
2022/11/08 08:03:43;;;;;;;4.83;3.90;;;;;;;13.85;56.06;97189.72;5064534;28;20448;-71
2022/11/08 08:06:08;;;;;;;6.03;4.17;;;;;;;14.15;55.09;97187.25;5061151;28;20194;-71
2022/11/08 08:08:34;;;;;;;5.63;3.60;;;;;;;14.58;53.90;97201.56;5065830;28;20177;-71
2022/11/08 08:10:59;;;;;;;3.73;3.13;;;;;;;14.44;52.33;97215.53;5063476;28;20210;-71
2022/11/08 08:13:25;;;;;;;5.70;3.97;;;;;;;14.87;52.27;97213.19;5063922;28;20182;-72
2022/11/08 08:15:50;;;;;;;3.50;3.20;;;;;;;15.27;51.69;97212.13;5058809;28;20187;-71
2022/11/08 08:18:19;;;;;;;9.20;3.70;;;;;;;15.54;49.77;97218.63;5068096;28;20183;-71
2022/11/08 08:20:45;;;;;;;4.17;2.83;;;;;;;15.65;49.80;97209.38;5061067;28;20277;-71
2022/11/08 08:23:11;;;;;;;4.47;3.30;;;;;;;16.13;49.43;97230.91;5058353;28;20430;-71
2022/11/08 08:25:36;;;;;;;8.30;2.93;;;;;;;16.54;47.96;97237.44;5057983;28;20838;-71
2022/11/08 08:28:02;;;;;;;7.30;3.10;;;;;;;16.72;47.58;97228.19;5063487;28;20193;-71
2022/11/08 08:30:29;;;;;;;5.07;3.10;;;;;;;16.91;47.49;97221.44;5068217;28;20233;-71
2022/11/08 08:33:07;;;;;;;3.90;2.70;;;;;;;17.40;46.60;97219.75;5065868;28;20198;-71
2022/11/08 08:35:34;;;;;;;4.00;2.90;;;;;;;17.43;45.36;97210.56;5069218;28;20834;-71
2022/11/08 08:38:00;;;;;;;5.40;2.27;;;;;;;17.60;45.62;97197.81;5064005;28;20431;-71
2022/11/08 08:40:25;;;;;;;2.73;2.50;;;;;;;17.72;44.84;97217.44;5061276;28;20460;-71
2022/11/08 08:42:51;;;;;;;4.40;2.33;;;;;;;17.76;44.55;97218.69;5061908;28;20845;-71
2022/11/08 08:45:16;;;;;;;2.87;2.27;;;;;;;17.96;45.07;97217.91;5062171;28;20191;-71
2022/11/08 08:47:42;;;;;;;4.23;2.30;;;;;;;17.73;45.01;97212.97;5060961;28;20227;-70
2022/11/08 08:50:07;;;;;;;3.10;2.47;;;;;;;17.21;45.20;97210.66;5064748;28;20644;-71
2022/11/08 08:52:33;;;;;;;6.80;2.43;;;;;;;17.15;45.76;97225.50;5056186;28;20178;-72
2022/11/08 08:54:58;;;;;;;3.17;2.30;;;;;;;17.13;46.38;97224.06;5066976;28;20300;-72
2022/11/08 08:57:24;;;;;;;7.70;2.20;;;;;;;17.02;46.56;97220.13;5057996;28;20646;-71
2022/11/08 08:59:49;;;;;;;5.30;2.90;;;;;;;16.79;46.69;97217.66;5060276;28;20229;-72
2022/11/08 09:02:14;;;;;;;3.90;2.40;;;;;;;16.74;47.25;97216.44;5068428;28;20197;-72
2022/11/08 09:04:40;;;;;;;7.63;2.70;;;;;;;16.67;47.16;97222.69;5052756;28;20210;-72
2022/11/08 09:07:05;;;;;;;3.23;2.20;;;;;;;16.43;47.52;97230.81;5065393;28;20208;-70
2022/11/08 09:09:32;;;;;;;8.43;2.63;;;;;;;16.50;47.97;97224.78;5060868;28;20179;-71
2022/11/08 09:11:58;;;;;;;6.20;2.30;;;;;;;16.58;47.27;97219.34;5066123;28;20230;-72
2022/11/08 09:14:24;;;;;;;4.17;2.40;;;;;;;16.79;47.53;97223.78;5059526;28;20437;-71
2022/11/08 09:16:49;;;;;;;3.50;2.60;;;;;;;17.14;47.09;97220.38;5065340;28;20239;-71
2022/11/08 09:19:14;;;;;;;2.73;2.33;;;;;;;17.70;46.40;97226.59;5066388;28;20221;-71
2022/11/08 09:21:40;;;;;;;2.63;2.17;;;;;;;18.22;45.08;97221.69;5053730;28;20281;-72
2022/11/08 09:24:05;;;;;;;4.93;2.23;;;;;;;18.67;44.35;97234.41;5066091;28;20296;-70
2022/11/08 09:26:31;;;;;;;4.70;2.40;;;;;;;18.98;43.47;97233.03;5063533;28;20174;-70
2022/11/08 09:28:56;;;;;;;3.30;2.23;;;;;;;19.19;42.90;97232.78;5064945;28;20212;-71
2022/11/08 09:31:22;;;;;;;4.03;2.77;;;;;;;19.28;42.75;97237.91;5056451;28;20203;-70
2022/11/08 09:33:48;;;;;;;5.30;1.30;;;;;;;19.58;40.02;97232.09;5064533;28;20284;-70
2022/11/08 09:36:14;;;;;;;2.63;1.13;;;;;;;19.41;37.85;97240.50;5063720;28;20194;-71
2022/11/08 09:38:40;;;;;;;3.73;1.00;;;;;;;19.26;37.28;97242.59;5060431;28;20421;-71
2022/11/08 09:41:36;;;;;;;1.50;1.13;;;;;;;19.13;38.03;97230.97;5059573;28;20310;-70
2022/11/08 09:44:30;;;;;;;2.27;1.20;;;;;;;19.77;36.30;97236.53;5056687;28;20804;-70
2022/11/08 09:47:02;;;;;;;2.27;1.30;;;;;;;19.18;36.86;97247.09;5059251;28;20729;-70
2022/11/08 09:49:32;;;;;;;2.03;1.30;;;;;;;19.16;37.34;97251.78;5064386;28;20456;-71
2022/11/08 09:51:59;;;;;;;2.17;1.50;;;;;;;19.10;37.62;97241.16;5061167;28;20944;-71
2022/11/08 09:54:33;;;;;;;3.00;1.60;;;;;;;19.17;37.69;97242.81;5064658;28;20428;-70
2022/11/08 09:57:03;;;;;;;1.63;1.53;;;;;;;19.25;37.33;97246.28;5059951;28;20482;-70
2022/11/08 09:59:42;;;;;;;1.97;1.40;;;;;;;19.30;37.79;97244.63;5056790;28;20864;-71
2022/11/08 10:02:19;;;;;;;1.87;1.20;;;;;;;18.99;37.92;97238.13;5059615;28;20436;-71
2022/11/08 10:04:50;;;;;;;1.57;1.20;;;;;;;19.06;37.91;97237.31;5059895;28;20521;-71
2022/11/08 10:07:35;;;;;;;3.37;1.47;;;;;;;18.69;38.35;97240.34;5064095;28;20493;-71
2022/11/08 10:10:26;;;;;;;2.70;1.60;;;;;;;18.60;38.59;97238.91;5048771;28;20434;-71
2022/11/08 10:13:18;;;;;;;1.67;1.30;;;;;;;18.46;39.00;97246.84;5057902;28;20547;-72
2022/11/08 10:16:10;;;;;;;3.00;1.87;;;;;;;18.41;39.12;97234.19;5048189;28;20421;-71
2022/11/08 10:18:57;;;;;;;3.20;1.20;;;;;;;18.40;39.16;97237.03;5051211;28;20413;-71
2022/11/08 10:21:34;;;;;;;4.10;1.53;;;;;;;18.42;39.53;97238.47;5047253;28;20442;-70
2022/11/08 10:24:14;;;;;;;2.40;1.43;;;;;;;18.40;39.21;97239.69;5043198;28;20412;-72
2022/11/08 10:26:44;;;;;;;2.33;1.50;;;;;;;18.46;39.63;97235.44;5061737;28;20530;-72
2022/11/08 10:29:17;;;;;;;3.03;1.67;;;;;;;18.38;39.73;97228.47;5065968;28;20920;-71
2022/11/08 10:31:45;;;;;;;1.77;1.57;;;;;;;18.32;39.96;97231.94;5047521;28;20450;-70
2022/11/08 10:34:17;;;;;;;3.00;1.97;;;;;;;18.38;39.89;97223.97;5068768;28;20973;-72
2022/11/08 10:36:47;;;;;;;2.93;1.63;;;;;;;18.40;40.02;97221.13;5060710;28;20412;-72
2022/11/08 10:39:16;;;;;;;3.53;1.40;;;;;;;18.46;40.11;97224.81;5060231;28;20492;-71
2022/11/08 10:42:05;;;;;;;3.43;1.67;;;;;;;18.53;40.01;97222.97;5061091;28;20464;-72
2022/11/08 10:44:30;;;;;;;6.87;2.20;;;;;;;18.69;40.23;97222.59;5043665;28;20410;-72
2022/11/08 10:46:56;;;;;;;3.83;2.17;;;;;;;18.91;40.23;97211.75;5052808;28;20940;-71
2022/11/08 10:49:42;;;;;;;5.40;3.30;;;;;;;19.03;40.39;97211.97;5056618;28;20192;-72
2022/11/08 10:52:10;;;;;;;15.10;6.70;;;;;;;19.31;40.48;97214.38;5058321;28;20202;-71
2022/11/08 10:54:46;;;;;;;3.13;2.73;;;;;;;19.43;39.17;97222.50;5064893;28;20424;-71
2022/11/08 10:57:30;;;;;;;4.50;2.13;;;;;;;19.53;38.14;97214.13;5058123;28;20753;-71
2022/11/08 10:59:56;;;;;;;5.50;2.47;;;;;;;19.55;38.04;97220.03;5059814;28;21166;-71
2022/11/08 11:02:35;;;;;;;2.90;1.87;;;;;;;19.58;37.77;97218.78;5067106;28;20796;-72
2022/11/08 11:05:18;;;;;;;4.70;2.10;;;;;;;19.41;37.66;97219.25;5054868;28;21026;-72
2022/11/08 11:08:05;;;;;;;2.03;1.83;;;;;;;19.50;37.62;97214.53;5056396;28;20569;-72
2022/11/08 11:10:38;;;;;;;3.10;1.60;;;;;;;19.57;37.76;97210.03;5047946;28;20441;-71
2022/11/08 11:13:10;;;;;;;4.93;1.67;;;;;;;19.38;37.63;97202.91;5065456;28;20453;-71
2022/11/08 11:15:47;;;;;;;3.83;1.60;;;;;;;19.32;38.60;97197.44;5052789;28;20493;-69
2022/11/08 11:18:27;;;;;;;2.83;1.67;;;;;;;19.44;38.74;97205.53;5069262;28;20448;-73
2022/11/08 11:21:01;;;;;;;5.50;1.63;;;;;;;19.34;39.74;97208.63;5056274;28;20477;-72
2022/11/08 11:23:54;;;;;;;4.40;1.70;;;;;;;19.22;38.81;97189.03;5062719;28;20955;-71
2022/11/08 11:26:29;;;;;;;4.10;1.80;;;;;;;19.10;39.85;97196.84;5066988;28;20447;-71
2022/11/08 11:29:04;;;;;;;3.13;1.90;;;;;;;19.38;39.91;97192.28;5066857;28;20420;-72
2022/11/08 11:31:31;;;;;;;3.13;1.93;;;;;;;19.73;39.55;97186.63;5068505;28;20435;-72
2022/11/08 11:33:58;;;;;;;8.87;2.30;;;;;;;20.25;39.06;97182.06;5060639;28;20525;-71
2022/11/08 11:36:26;;;;;;;4.00;2.10;;;;;;;20.68;37.93;97171.75;5067282;28;20421;-71
2022/11/08 11:39:04;;;;;;;4.00;1.80;;;;;;;21.12;37.32;97174.44;5056516;28;20425;-72
2022/11/08 11:41:37;;;;;;;3.77;1.80;;;;;;;21.56;36.45;97169.81;5050577;28;20920;-71
2022/11/08 11:44:23;;;;;;;1.97;1.67;;;;;;;21.96;35.85;97167.72;5057332;28;20432;-72
2022/11/08 11:47:04;;;;;;;4.13;1.60;;;;;;;22.33;35.16;97162.25;5069837;28;20416;-71
2022/11/08 11:49:30;;;;;;;2.80;1.93;;;;;;;22.58;34.97;97162.09;5057514;28;20500;-71
2022/11/08 11:51:56;;;;;;;2.57;1.90;;;;;;;21.97;34.86;97162.16;5063927;28;20515;-70
2022/11/08 11:54:30;;;;;;;4.50;1.87;;;;;;;21.85;35.34;97150.66;5066461;28;20608;-71
2022/11/08 11:56:58;;;;;;;4.90;1.63;;;;;;;22.07;35.01;97153.59;5064181;28;20780;-71